ENFJ weather

Fedje Heliport, H√łgden
Fedje, Hordaland, Norway

Public forecast

Using degrees Celsius for public forecast. Weather courtesy of forecast.io.

METAR (pilot weather report)

Closest report is Troll A Platform, 30.5 nm (56.5 km) WSW. Retrieved 2019/07/23 16:20 UTC (22 minutes ago):

ENQA 231620Z AUTO 17021KT 7000NDV NCD 15/14 Q1017 W12/S3

TAF (pilot weather forecast)

Closest forecast is Bergen Airport Flesland, 31.8 nm (58.8 km) SSE. Retrieved 2019/07/23 12:57 UTC (4 hours ago):

TAF ENBR 231100Z 2312/2412 17010KT 9999 SCT003 BKN006 BECMG 2312/2314 FEW008 BKN030 PROB30 2322/2407 VRB07KT 0200 FG VV001